Time;durP1;ratioP1;P1;durP2;ratioP2;P2;SDS_P1;SDS_P2;PMS_P1;PMS_P2;Temp;Humidity;BMP_temperature;BMP_pressure;BME280_temperature;BME280_humidity;BME280_pressure;Samples;Min_cycle;Max_cycle;Signal;HPM_P1;HPM_P2
2023/07/23 00:00:10;;;;;;;16.70;8.48;;;15.30;99.90;;;;;;5040943;28;20534;-88
2023/07/23 00:02:42;;;;;;;17.40;8.38;;;15.40;99.90;;;;;;5025729;28;20076;-87
2023/07/23 00:05:13;;;;;;;13.50;8.20;;;15.40;99.90;;;;;;5041151;28;20024;-87
2023/07/23 00:07:43;;;;;;;14.27;7.93;;;15.40;99.90;;;;;;5025089;28;20033;-88
2023/07/23 00:10:12;;;;;;;16.73;7.90;;;15.40;99.90;;;;;;5025265;28;20060;-87
2023/07/23 00:12:44;;;;;;;19.10;9.35;;;15.40;99.90;;;;;;5025179;28;20033;-88
2023/07/23 00:15:12;;;;;;;15.63;9.05;;;15.40;99.90;;;;;;5008854;28;20063;-88
2023/07/23 00:17:39;;;;;;;16.17;8.85;;;15.40;99.90;;;;;;5040092;28;20033;-88
2023/07/23 00:20:10;;;;;;;14.35;8.50;;;15.40;99.90;;;;;;5041222;28;20041;-87
2023/07/23 00:22:37;;;;;;;15.63;8.73;;;15.40;99.90;;;;;;5044187;28;20033;-88
2023/07/23 00:25:03;;;;;;;14.90;8.38;;;15.40;99.90;;;;;;5043564;28;20332;-88
2023/07/23 00:27:31;;;;;;;16.27;9.15;;;15.40;99.90;;;;;;5040405;28;20041;-87
2023/07/23 00:29:57;;;;;;;15.02;8.30;;;15.40;99.90;;;;;;5022846;28;20792;-88
2023/07/23 00:32:23;;;;;;;19.20;8.90;;;15.40;99.90;;;;;;5043426;28;20050;-88
2023/07/23 00:34:49;;;;;;;15.88;8.98;;;15.40;99.90;;;;;;5010467;28;20033;-88
2023/07/23 00:37:15;;;;;;;14.32;8.82;;;15.40;99.90;;;;;;5046535;28;20025;-87
2023/07/23 00:39:43;;;;;;;13.77;8.55;;;15.40;99.90;;;;;;5007455;28;20127;-88
2023/07/23 00:42:12;;;;;;;13.15;7.63;;;15.40;99.90;;;;;;5023859;28;20025;-87
2023/07/23 00:44:38;;;;;;;16.20;7.60;;;15.40;99.90;;;;;;5007913;28;20056;-90
2023/07/23 00:47:08;;;;;;;12.82;8.00;;;15.40;99.90;;;;;;5042012;28;20036;-87
2023/07/23 00:49:37;;;;;;;13.18;8.55;;;15.40;99.90;;;;;;5026983;28;20036;-87
2023/07/23 00:52:11;;;;;;;16.42;8.50;;;15.40;99.90;;;;;;5027976;28;20036;-87
2023/07/23 00:54:44;;;;;;;19.50;8.63;;;15.40;99.90;;;;;;5027405;28;20040;-87
2023/07/23 00:57:11;;;;;;;12.80;8.32;;;15.40;99.90;;;;;;5029437;28;20063;-87
2023/07/23 00:59:41;;;;;;;14.43;7.75;;;15.40;99.90;;;;;;5042829;28;20064;-88
2023/07/23 01:02:07;;;;;;;14.13;8.00;;;15.40;99.90;;;;;;5026747;28;20024;-87
2023/07/23 01:04:34;;;;;;;14.98;7.90;;;15.40;99.90;;;;;;5026420;28;20086;-87
2023/07/23 01:07:07;;;;;;;12.52;8.10;;;15.40;99.90;;;;;;5018558;28;20442;-87
2023/07/23 01:09:36;;;;;;;13.32;8.02;;;15.40;99.90;;;;;;5042785;28;20040;-87
2023/07/23 01:12:03;;;;;;;11.50;7.43;;;15.40;99.90;;;;;;5062790;28;20441;-87
2023/07/23 01:14:33;;;;;;;14.98;8.15;;;15.40;99.90;;;;;;5029745;28;20043;-88
2023/07/23 01:17:00;;;;;;;14.30;7.88;;;15.40;99.90;;;;;;5043152;28;20028;-87
2023/07/23 01:19:26;;;;;;;14.15;7.80;;;15.40;99.90;;;;;;5045717;28;20039;-87
2023/07/23 01:22:04;;;;;;;14.30;8.00;;;15.40;99.90;;;;;;5044852;28;20059;-87
2023/07/23 01:24:35;;;;;;;15.85;7.93;;;15.40;99.90;;;;;;5034989;28;20078;-87
2023/07/23 01:27:02;;;;;;;19.27;8.73;;;15.40;99.90;;;;;;5027463;28;20439;-87
2023/07/23 01:29:31;;;;;;;13.07;8.02;;;15.40;99.90;;;;;;5026371;28;20044;-87
2023/07/23 01:32:00;;;;;;;16.17;9.15;;;15.40;99.90;;;;;;5042207;28;20127;-87
2023/07/23 01:34:30;;;;;;;15.07;8.48;;;15.40;99.90;;;;;;5013444;28;20024;-87
2023/07/23 01:37:03;;;;;;;16.73;9.05;;;15.30;99.90;;;;;;5026300;28;20055;-87
2023/07/23 01:39:32;;;;;;;18.15;8.95;;;15.30;99.90;;;;;;5025401;28;20028;-87
2023/07/23 01:42:00;;;;;;;19.52;8.85;;;15.40;99.90;;;;;;5026873;28;20433;-88
2023/07/23 01:44:26;;;;;;;17.70;7.97;;;15.30;99.90;;;;;;5042154;28;20024;-87
2023/07/23 01:46:54;;;;;;;15.10;8.57;;;15.40;99.90;;;;;;5026125;28;20028;-87
2023/07/23 01:49:22;;;;;;;14.32;8.57;;;15.40;99.90;;;;;;5025997;28;20040;-87
2023/07/23 01:51:48;;;;;;;20.88;8.27;;;15.30;99.90;;;;;;5010321;28;20123;-87
2023/07/23 01:54:14;;;;;;;16.50;9.10;;;15.40;99.90;;;;;;5061360;28;20032;-87
2023/07/23 01:56:41;;;;;;;15.50;8.95;;;15.30;99.90;;;;;;5046164;28;20062;-87
2023/07/23 01:59:08;;;;;;;15.68;8.98;;;15.40;99.90;;;;;;5036762;28;20057;-87
2023/07/23 02:01:36;;;;;;;14.82;8.48;;;15.40;99.90;;;;;;5009777;28;20037;-87
2023/07/23 02:04:02;;;;;;;13.52;8.32;;;15.40;99.90;;;;;;5009032;28;20090;-87
2023/07/23 02:06:29;;;;;;;17.02;8.38;;;15.40;99.90;;;;;;5042165;28;20293;-87
2023/07/23 02:08:58;;;;;;;16.92;8.57;;;15.40;99.90;;;;;;5026509;28;20035;-87
2023/07/23 02:11:27;;;;;;;16.58;8.57;;;15.30;99.90;;;;;;5046046;28;20434;-87
2023/07/23 02:13:53;;;;;;;14.55;8.68;;;15.40;99.90;;;;;;5028931;28;20410;-87
2023/07/23 02:16:22;;;;;;;14.63;7.97;;;15.40;99.90;;;;;;5024984;28;20036;-87
2023/07/23 02:18:50;;;;;;;13.38;8.25;;;15.40;99.90;;;;;;5025146;28;20119;-87
2023/07/23 02:21:16;;;;;;;13.45;8.15;;;15.40;99.90;;;;;;5042423;28;20029;-87
2023/07/23 02:23:45;;;;;;;13.15;8.20;;;15.40;99.90;;;;;;5043669;28;20093;-87
2023/07/23 02:26:11;;;;;;;15.23;8.80;;;15.40;99.90;;;;;;5041873;28;20060;-87
2023/07/23 02:28:43;;;;;;;14.85;8.20;;;15.40;99.90;;;;;;5025794;28;20458;-88
2023/07/23 02:31:10;;;;;;;16.92;8.25;;;15.40;99.90;;;;;;5019920;28;20044;-87
2023/07/23 02:33:36;;;;;;;15.95;8.50;;;15.40;99.90;;;;;;5028081;28;20036;-87
2023/07/23 02:36:02;;;;;;;15.70;8.02;;;15.50;99.90;;;;;;5008423;28;20048;-87
2023/07/23 02:38:29;;;;;;;12.60;7.38;;;15.50;99.90;;;;;;5041408;28;20075;-87
2023/07/23 02:40:58;;;;;;;14.52;7.60;;;15.40;99.90;;;;;;5025978;28;20587;-88
2023/07/23 02:43:25;;;;;;;12.77;7.82;;;15.50;99.90;;;;;;5025439;28;20035;-87
2023/07/23 02:45:52;;;;;;;14.00;8.10;;;15.50;99.90;;;;;;5026200;28;20365;-88
2023/07/23 02:48:24;;;;;;;13.48;8.52;;;15.40;99.90;;;;;;5045406;28;20188;-87
2023/07/23 02:50:53;;;;;;;12.77;7.88;;;15.40;99.90;;;;;;5044529;28;20051;-86
2023/07/23 02:53:23;;;;;;;11.38;7.30;;;15.40;99.90;;;;;;5028565;28;20036;-87
2023/07/23 02:55:54;;;;;;;12.82;7.88;;;15.40;99.90;;;;;;5045637;28;20043;-87
2023/07/23 02:58:21;;;;;;;13.82;8.38;;;15.40;99.90;;;;;;5053483;28;20037;-87
2023/07/23 03:00:55;;;;;;;14.73;8.45;;;15.50;99.90;;;;;;5059445;28;20158;-87
2023/07/23 03:03:22;;;;;;;13.85;7.63;;;15.40;99.90;;;;;;5045381;28;20040;-87
2023/07/23 03:05:48;;;;;;;15.38;8.00;;;15.40;99.90;;;;;;5027671;28;20423;-87
2023/07/23 03:08:15;;;;;;;13.13;8.10;;;15.40;99.90;;;;;;5057741;28;20032;-87
2023/07/23 03:10:44;;;;;;;12.70;7.93;;;15.40;99.90;;;;;;5008430;28;20033;-86
2023/07/23 03:13:13;;;;;;;15.95;8.68;;;15.40;99.90;;;;;;5009550;28;20115;-87
2023/07/23 03:15:40;;;;;;;14.93;8.38;;;15.40;99.90;;;;;;5025117;28;20450;-87
2023/07/23 03:18:11;;;;;;;15.13;8.43;;;15.40;99.90;;;;;;5041544;28;20501;-87
2023/07/23 03:20:39;;;;;;;15.52;9.00;;;15.40;99.90;;;;;;5064342;28;20115;-87
2023/07/23 03:23:05;;;;;;;15.00;8.68;;;15.40;99.90;;;;;;5048317;28;20024;-88
2023/07/23 03:25:31;;;;;;;17.13;9.02;;;15.40;99.90;;;;;;5033803;28;20040;-87
2023/07/23 03:27:59;;;;;;;18.25;9.43;;;15.40;99.90;;;;;;5033895;28;20063;-87
2023/07/23 03:30:28;;;;;;;15.70;8.85;;;15.40;99.90;;;;;;5020056;28;20056;-87
2023/07/23 03:32:56;;;;;;;19.58;9.27;;;15.40;99.90;;;;;;5024431;28;20037;-87
2023/07/23 03:35:24;;;;;;;14.40;9.05;;;15.50;99.90;;;;;;5041730;28;20082;-87
2023/07/23 03:37:56;;;;;;;19.60;9.25;;;15.50;99.90;;;;;;5007974;28;20093;-89
2023/07/23 03:40:24;;;;;;;15.85;9.20;;;15.50;99.90;;;;;;5030428;28;20054;-87
2023/07/23 03:42:51;;;;;;;17.08;9.23;;;15.50;99.90;;;;;;5043462;28;20028;-87
2023/07/23 03:45:25;;;;;;;14.77;8.38;;;15.50;99.90;;;;;;5039610;28;20024;-87
2023/07/23 03:47:52;;;;;;;12.77;8.63;;;15.50;99.90;;;;;;5023093;28;20074;-87
2023/07/23 03:50:19;;;;;;;16.23;9.43;;;15.50;99.90;;;;;;5039875;28;20032;-87
2023/07/23 03:52:46;;;;;;;18.02;10.65;;;15.60;99.90;;;;;;5024005;28;20077;-87
2023/07/23 03:55:14;;;;;;;14.57;8.82;;;15.50;99.90;;;;;;5022912;28;20041;-87
2023/07/23 03:57:42;;;;;;;14.35;8.73;;;15.50;99.90;;;;;;5022934;28;20467;-87
2023/07/23 04:00:11;;;;;;;14.40;8.20;;;15.50;99.90;;;;;;5007731;28;20041;-87
2023/07/23 04:02:41;;;;;;;16.30;8.98;;;15.60;99.90;;;;;;5035658;28;20071;-88
2023/07/23 04:05:14;;;;;;;15.15;8.90;;;15.50;99.90;;;;;;5044749;28;20446;-87
2023/07/23 04:07:41;;;;;;;15.60;8.75;;;15.50;99.90;;;;;;5060323;28;20085;-87
2023/07/23 04:10:10;;;;;;;13.98;7.82;;;15.50;99.90;;;;;;5044511;28;20085;-87
2023/07/23 04:12:40;;;;;;;16.35;8.77;;;15.50;99.90;;;;;;5030390;28;20028;-87
2023/07/23 04:15:07;;;;;;;11.20;7.70;;;15.50;99.90;;;;;;5006187;28;20028;-88
2023/07/23 04:17:33;;;;;;;14.85;8.15;;;15.50;99.90;;;;;;5030353;28;20055;-87
2023/07/23 04:19:59;;;;;;;14.05;8.38;;;15.50;99.90;;;;;;5024198;28;20036;-87
2023/07/23 04:22:29;;;;;;;14.55;8.98;;;15.50;99.90;;;;;;5046378;28;20024;-87
2023/07/23 04:24:56;;;;;;;13.98;8.30;;;15.50;99.90;;;;;;5062289;28;20475;-87
2023/07/23 04:27:43;;;;;;;15.25;8.93;;;15.50;99.90;;;;;;5082368;28;20438;-87
2023/07/23 04:30:09;;;;;;;14.23;8.88;;;15.50;99.90;;;;;;5046309;28;20034;-87
2023/07/23 04:32:35;;;;;;;12.35;8.27;;;15.50;99.90;;;;;;5013759;28;20071;-88
2023/07/23 04:35:02;;;;;;;11.88;8.07;;;15.50;99.90;;;;;;5040153;28;20028;-88
2023/07/23 04:37:28;;;;;;;12.73;8.70;;;15.40;99.90;;;;;;5046442;28;20036;-87
2023/07/23 04:40:00;;;;;;;13.63;8.13;;;15.40;99.90;;;;;;5047234;28;20368;-89
2023/07/23 04:42:26;;;;;;;13.10;7.65;;;15.50;99.90;;;;;;5047142;28;20093;-87
2023/07/23 04:44:52;;;;;;;14.75;7.88;;;15.40;99.90;;;;;;5046646;28;20032;-87
2023/07/23 04:47:22;;;;;;;14.00;8.52;;;15.40;99.90;;;;;;5047653;28;20044;-87
2023/07/23 04:49:48;;;;;;;15.20;8.95;;;15.40;99.90;;;;;;5046460;28;20094;-87
2023/07/23 04:52:14;;;;;;;12.13;8.82;;;15.40;99.90;;;;;;5046775;28;20039;-88
2023/07/23 04:54:40;;;;;;;13.75;8.00;;;15.40;99.90;;;;;;5028527;28;20114;-87
2023/07/23 04:57:06;;;;;;;14.77;8.73;;;15.30;99.90;;;;;;5026820;28;20431;-88
2023/07/23 04:59:32;;;;;;;15.27;8.23;;;15.30;99.90;;;;;;5026640;28;20072;-87
2023/07/23 05:02:02;;;;;;;13.88;8.10;;;15.30;99.90;;;;;;5043217;28;20033;-87
2023/07/23 05:04:29;;;;;;;12.27;8.10;;;15.40;99.90;;;;;;5013393;28;20043;-87
2023/07/23 05:06:59;;;;;;;13.20;8.32;;;15.30;99.90;;;;;;5042246;28;20023;-87
2023/07/23 05:09:25;;;;;;;12.23;8.07;;;15.30;99.90;;;;;;5015158;28;20033;-87
2023/07/23 05:11:54;;;;;;;13.27;8.15;;;15.30;99.90;;;;;;5027107;28;20056;-87
2023/07/23 05:14:20;;;;;;;14.20;7.85;;;15.40;99.90;;;;;;5051211;28;20427;-87
2023/07/23 05:16:48;;;;;;;11.98;8.18;;;15.30;99.90;;;;;;5046159;28;20024;-87
2023/07/23 05:19:17;;;;;;;13.65;8.10;;;15.30;99.90;;;;;;5050644;28;20060;-88
2023/07/23 05:21:49;;;;;;;11.95;8.45;;;15.30;99.90;;;;;;5041288;28;20047;-87
2023/07/23 05:24:18;;;;;;;14.35;8.05;;;15.30;99.90;;;;;;5057615;28;20063;-87
2023/07/23 05:26:46;;;;;;;15.85;8.10;;;15.30;99.90;;;;;;5044096;28;20033;-87
2023/07/23 05:29:14;;;;;;;11.23;7.80;;;15.30;99.90;;;;;;5026149;28;20060;-87
2023/07/23 05:31:44;;;;;;;17.33;8.18;;;15.30;99.90;;;;;;5040923;28;20036;-88
2023/07/23 05:34:16;;;;;;;13.90;7.80;;;15.30;99.90;;;;;;5056917;28;20032;-87
2023/07/23 05:36:52;;;;;;;12.80;7.90;;;15.30;99.90;;;;;;4996964;28;20044;-87
2023/07/23 05:39:28;;;;;;;13.95;8.48;;;15.30;99.90;;;;;;5058796;28;20036;-87
2023/07/23 05:42:02;;;;;;;14.25;8.13;;;15.30;99.90;;;;;;5061251;28;20043;-86
2023/07/23 05:44:31;;;;;;;12.40;7.93;;;15.30;99.90;;;;;;5060812;28;20028;-88
2023/07/23 05:46:57;;;;;;;13.27;8.07;;;15.20;99.90;;;;;;5044149;28;20028;-87
2023/07/23 05:49:24;;;;;;;14.68;8.02;;;15.20;99.90;;;;;;5044002;28;20151;-87
2023/07/23 05:51:51;;;;;;;18.35;9.40;;;15.20;99.90;;;;;;5041129;28;20036;-87
2023/07/23 05:54:25;;;;;;;12.15;8.82;;;15.20;99.90;;;;;;5010185;28;20098;-87
2023/07/23 05:56:56;;;;;;;14.68;9.45;;;15.20;99.90;;;;;;5041476;28;20043;-87
2023/07/23 05:59:27;;;;;;;14.27;8.65;;;15.30;99.90;;;;;;5060552;28;20130;-87
2023/07/23 06:01:53;;;;;;;11.85;8.88;;;15.30;99.90;;;;;;5053754;28;20054;-87
2023/07/23 06:04:22;;;;;;;13.25;8.80;;;15.30;99.90;;;;;;5060063;28;20032;-87
2023/07/23 06:06:50;;;;;;;13.77;8.90;;;15.30;99.90;;;;;;5048310;28;20029;-87
2023/07/23 06:09:19;;;;;;;12.90;8.55;;;15.30;99.90;;;;;;5055880;28;20035;-88
2023/07/23 06:12:10;;;;;;;12.82;8.02;;;15.30;99.90;;;;;;5032946;28;20396;-86
2023/07/23 06:15:09;;;;;;;13.13;9.20;;;15.30;99.90;;;;;;5074524;28;20031;-88
2023/07/23 06:17:36;;;;;;;11.85;8.32;;;15.30;99.90;;;;;;5043488;28;20502;-87
2023/07/23 06:20:14;;;;;;;13.27;8.35;;;15.30;99.90;;;;;;5039674;28;20423;-87
2023/07/23 06:22:46;;;;;;;11.95;8.20;;;15.30;99.90;;;;;;5008422;28;20427;-87
2023/07/23 06:25:12;;;;;;;12.63;8.68;;;15.30;99.90;;;;;;5025475;28;20032;-86
2023/07/23 06:27:42;;;;;;;12.43;8.38;;;15.40;99.90;;;;;;5058993;28;20339;-87
2023/07/23 06:30:18;;;;;;;15.68;8.68;;;15.40;99.90;;;;;;5042210;28;20028;-88
2023/07/23 06:32:44;;;;;;;14.90;9.10;;;15.30;99.90;;;;;;5094603;28;20081;-86
2023/07/23 06:35:12;;;;;;;14.95;8.52;;;15.30;99.90;;;;;;5076640;28;20035;-86
2023/07/23 06:37:43;;;;;;;14.52;9.35;;;15.40;99.90;;;;;;5059054;28;20054;-86
2023/07/23 06:40:14;;;;;;;16.90;8.55;;;15.40;99.90;;;;;;5060286;28;20028;-88
2023/07/23 06:42:40;;;;;;;14.02;9.15;;;15.40;99.90;;;;;;5040064;28;20126;-87
2023/07/23 06:45:13;;;;;;;15.80;9.35;;;15.40;99.90;;;;;;5025168;28;20032;-88
2023/07/23 06:47:48;;;;;;;15.32;9.13;;;15.40;99.90;;;;;;5060130;28;20075;-87
2023/07/23 06:50:18;;;;;;;15.30;9.20;;;15.40;99.90;;;;;;5043431;28;20032;-88
2023/07/23 06:52:46;;;;;;;14.80;9.50;;;15.40;99.90;;;;;;5043859;28;20039;-88
2023/07/23 06:55:21;;;;;;;16.77;9.55;;;15.40;99.90;;;;;;5044510;28;20085;-87
2023/07/23 06:57:52;;;;;;;14.10;9.15;;;15.50;99.90;;;;;;5027719;28;20036;-87
2023/07/23 07:00:22;;;;;;;16.05;9.32;;;15.50;99.90;;;;;;5043637;28;20036;-88
2023/07/23 07:02:52;;;;;;;16.15;10.00;;;15.50;99.90;;;;;;5044113;28;20054;-88
2023/07/23 07:05:20;;;;;;;16.92;10.52;;;15.50;99.90;;;;;;5023309;28;20494;-86
2023/07/23 07:07:49;;;;;;;17.40;10.52;;;15.50;99.90;;;;;;5032486;28;20039;-87
2023/07/23 07:10:18;;;;;;;17.02;9.90;;;15.60;99.90;;;;;;5033073;28;20032;-87
2023/07/23 07:12:46;;;;;;;16.23;9.50;;;15.60;99.90;;;;;;5052849;28;20032;-86
2023/07/23 07:15:12;;;;;;;15.90;10.38;;;15.60;99.90;;;;;;5033444;28;20283;-86
2023/07/23 07:17:38;;;;;;;13.18;9.57;;;15.60;99.90;;;;;;5031377;28;20119;-86
2023/07/23 07:20:05;;;;;;;18.63;11.80;;;15.70;99.90;;;;;;5052676;28;20070;-86
2023/07/23 07:22:31;;;;;;;14.82;10.13;;;15.70;99.90;;;;;;5012319;28;20046;-86
2023/07/23 07:24:57;;;;;;;15.80;9.73;;;15.70;99.90;;;;;;5057986;28;20104;-86
2023/07/23 07:27:27;;;;;;;19.05;10.63;;;15.70;99.90;;;;;;5065063;28;20028;-87
2023/07/23 07:29:55;;;;;;;15.63;9.07;;;15.80;99.90;;;;;;5036592;28;20431;-86
2023/07/23 07:32:31;;;;;;;16.63;9.75;;;15.90;99.90;;;;;;5032175;28;20036;-86
2023/07/23 07:34:57;;;;;;;15.75;10.85;;;16.00;99.90;;;;;;5041984;28;20130;-86
2023/07/23 07:37:27;;;;;;;20.77;11.32;;;16.00;99.90;;;;;;5053869;28;20028;-87
2023/07/23 07:39:56;;;;;;;22.63;11.70;;;16.00;99.90;;;;;;5038145;28;20070;-86
2023/07/23 07:42:24;;;;;;;18.88;12.75;;;16.10;99.90;;;;;;5009110;28;20032;-86
2023/07/23 07:44:50;;;;;;;21.00;13.63;;;16.10;99.90;;;;;;5050090;28;20035;-87
2023/07/23 07:47:16;;;;;;;19.95;13.43;;;16.10;99.90;;;;;;5062470;28;20040;-86
2023/07/23 07:49:42;;;;;;;19.83;13.32;;;16.10;99.90;;;;;;5018309;28;20074;-87
2023/07/23 07:52:10;;;;;;;22.55;13.75;;;16.20;99.90;;;;;;5028334;28;20043;-87
2023/07/23 07:54:37;;;;;;;20.60;13.32;;;16.20;99.90;;;;;;5037894;28;20024;-88
2023/07/23 07:57:07;;;;;;;20.63;13.35;;;16.20;99.90;;;;;;5021958;28;20042;-87
2023/07/23 07:59:36;;;;;;;17.45;12.93;;;16.20;99.90;;;;;;5023324;28;20041;-87
2023/07/23 08:02:03;;;;;;;16.15;12.52;;;16.20;99.90;;;;;;5036128;28;21243;-87
2023/07/23 08:04:37;;;;;;;16.55;12.55;;;16.20;99.90;;;;;;5054632;28;20407;-87
2023/07/23 08:07:06;;;;;;;17.60;13.40;;;16.30;99.90;;;;;;5057445;28;20032;-87
2023/07/23 08:09:36;;;;;;;19.10;13.48;;;16.30;99.90;;;;;;5043721;28;20044;-88
2023/07/23 08:12:05;;;;;;;18.15;13.95;;;16.30;99.90;;;;;;5033272;28;20048;-86
2023/07/23 08:14:33;;;;;;;16.08;13.77;;;16.30;99.90;;;;;;5041920;28;20382;-87
2023/07/23 08:17:00;;;;;;;16.73;14.43;;;16.30;99.90;;;;;;5041248;28;20055;-86
2023/07/23 08:19:26;;;;;;;16.02;14.32;;;16.40;99.90;;;;;;5066703;28;20068;-87
2023/07/23 08:21:53;;;;;;;16.33;13.82;;;16.40;99.90;;;;;;5057621;28;20033;-87
2023/07/23 08:24:21;;;;;;;15.23;13.63;;;16.40;99.90;;;;;;5045286;28;20040;-87
2023/07/23 08:26:49;;;;;;;16.13;12.75;;;16.50;99.90;;;;;;5053015;28;20056;-86
2023/07/23 08:29:19;;;;;;;20.05;13.70;;;16.50;99.90;;;;;;5030388;28;20029;-87
2023/07/23 08:31:45;;;;;;;15.27;10.82;;;16.50;99.90;;;;;;5038144;28;20044;-87
2023/07/23 08:34:17;;;;;;;16.20;11.30;;;16.50;99.90;;;;;;5022268;28;20028;-86
2023/07/23 08:36:44;;;;;;;14.18;9.85;;;16.50;99.90;;;;;;5041542;28;20052;-86
2023/07/23 08:39:13;;;;;;;12.27;9.02;;;16.50;99.90;;;;;;5036088;28;20379;-87
2023/07/23 08:42:08;;;;;;;10.93;8.82;;;16.50;99.90;;;;;;5042410;28;20385;-87
2023/07/23 08:44:44;;;;;;;13.07;9.68;;;16.50;99.90;;;;;;5055590;28;20100;-86
2023/07/23 08:47:16;;;;;;;12.43;10.07;;;16.50;99.90;;;;;;5020638;28;20840;-87
2023/07/23 08:49:43;;;;;;;14.50;12.38;;;16.50;99.90;;;;;;4998980;28;1187953;-87
2023/07/23 08:52:12;;;;;;;20.15;14.18;;;16.50;99.90;;;;;;5046581;28;20016;-87
2023/07/23 08:54:42;;;;;;;17.60;15.20;;;16.60;99.90;;;;;;5060658;28;20128;-86
2023/07/23 08:57:11;;;;;;;17.33;15.52;;;16.60;99.90;;;;;;5043935;28;20051;-86
2023/07/23 08:59:41;;;;;;;20.05;16.23;;;16.60;99.90;;;;;;5041006;28;20658;-86
2023/07/23 09:02:15;;;;;;;17.27;15.55;;;16.50;99.90;;;;;;5040703;28;20029;-86
2023/07/23 09:04:41;;;;;;;18.05;16.25;;;16.50;99.90;;;;;;5041080;28;20082;-87
2023/07/23 09:07:10;;;;;;;17.60;15.80;;;16.50;99.90;;;;;;5041259;28;20357;-86
2023/07/23 09:09:39;;;;;;;16.85;15.07;;;16.60;99.90;;;;;;5025434;28;20063;-86
2023/07/23 09:12:05;;;;;;;17.85;15.82;;;16.60;99.90;;;;;;5041784;28;20047;-86
2023/07/23 09:14:43;;;;;;;19.02;17.02;;;16.50;99.90;;;;;;5058277;28;20036;-87
2023/07/23 09:17:18;;;;;;;18.25;16.55;;;16.60;99.90;;;;;;5041796;28;20458;-87
2023/07/23 09:19:44;;;;;;;20.58;18.10;;;16.60;99.90;;;;;;5008948;28;20044;-86
2023/07/23 09:22:10;;;;;;;22.50;18.55;;;16.60;99.90;;;;;;5026037;28;20021;-86
2023/07/23 09:24:36;;;;;;;20.10;17.45;;;16.60;99.90;;;;;;5026019;28;20063;-86
2023/07/23 09:27:11;;;;;;;19.83;17.83;;;16.60;99.90;;;;;;5059620;28;20395;-86
2023/07/23 09:29:41;;;;;;;19.98;17.88;;;16.60;99.90;;;;;;5037508;28;20066;-86
2023/07/23 09:32:28;;;;;;;20.92;18.83;;;16.60;99.90;;;;;;5061087;28;20403;-86
2023/07/23 09:34:58;;;;;;;20.42;18.27;;;16.70;99.90;;;;;;5043949;28;20036;-86
2023/07/23 09:37:30;;;;;;;21.58;19.42;;;16.70;99.90;;;;;;5061083;28;20054;-86
2023/07/23 09:40:01;;;;;;;20.75;18.55;;;16.70;99.90;;;;;;5060517;28;20194;-86
2023/07/23 09:42:27;;;;;;;22.38;18.73;;;16.70;99.90;;;;;;5036736;28;20082;-86
2023/07/23 09:45:00;;;;;;;20.88;18.77;;;16.80;99.90;;;;;;5038214;28;20032;-87
2023/07/23 09:47:28;;;;;;;19.25;17.05;;;16.80;99.90;;;;;;5024370;28;20710;-87
2023/07/23 09:49:58;;;;;;;21.13;18.83;;;16.80;99.90;;;;;;5058964;28;20028;-86
2023/07/23 09:52:38;;;;;;;19.33;16.90;;;16.80;99.90;;;;;;5030178;28;20040;-86
2023/07/23 09:55:14;;;;;;;19.67;17.67;;;16.90;99.90;;;;;;5061683;28;20034;-87
2023/07/23 09:57:41;;;;;;;20.08;17.90;;;16.90;99.90;;;;;;5039814;28;20040;-85
2023/07/23 10:00:08;;;;;;;20.92;18.50;;;16.90;99.90;;;;;;5023480;28;20032;-86
2023/07/23 10:02:43;;;;;;;18.60;16.60;;;16.90;99.90;;;;;;5057753;28;20104;-86
2023/07/23 10:05:16;;;;;;;22.27;18.52;;;16.90;99.90;;;;;;5032047;28;20043;-86
2023/07/23 10:07:45;;;;;;;19.55;17.52;;;16.90;99.90;;;;;;5040344;28;20044;-87
2023/07/23 10:10:15;;;;;;;20.15;17.38;;;16.90;99.90;;;;;;5060180;28;20040;-86
2023/07/23 10:12:42;;;;;;;19.27;17.30;;;17.00;99.90;;;;;;5060572;28;20036;-86
2023/07/23 10:15:09;;;;;;;19.67;17.58;;;17.00;99.90;;;;;;5043451;28;20031;-85
2023/07/23 10:17:51;;;;;;;20.63;17.48;;;17.00;99.90;;;;;;5078304;28;20031;-86
2023/07/23 10:20:18;;;;;;;20.08;17.10;;;17.00;99.90;;;;;;5060312;28;20059;-87
2023/07/23 10:22:47;;;;;;;18.98;16.85;;;17.10;99.90;;;;;;5026610;28;20025;-86
2023/07/23 10:25:30;;;;;;;20.13;18.13;;;17.10;99.90;;;;;;5043509;28;20035;-87
2023/07/23 10:28:05;;;;;;;20.80;17.45;;;17.10;99.90;;;;;;5023149;28;20044;-86
2023/07/23 10:30:36;;;;;;;19.30;17.25;;;17.10;99.90;;;;;;5033908;28;20043;-87
2023/07/23 10:33:11;;;;;;;19.02;17.05;;;17.20;99.90;;;;;;5053479;28;20031;-85
2023/07/23 10:35:53;;;;;;;19.25;17.23;;;17.20;99.90;;;;;;5040684;28;20022;-87
2023/07/23 10:38:26;;;;;;;18.90;16.80;;;17.30;99.90;;;;;;5060467;28;20043;-86
2023/07/23 10:40:52;;;;;;;19.50;17.45;;;17.30;99.90;;;;;;5056682;28;20031;-86
2023/07/23 10:43:18;;;;;;;19.25;17.23;;;17.40;99.90;;;;;;5059405;28;20343;-86
2023/07/23 10:45:59;;;;;;;18.75;16.75;;;17.40;99.90;;;;;;5041522;28;20330;-85
2023/07/23 10:48:39;;;;;;;18.20;16.25;;;17.40;99.90;;;;;;5047610;28;20036;-85
2023/07/23 10:51:25;;;;;;;18.50;16.13;;;17.40;99.90;;;;;;5060028;28;20036;-85
2023/07/23 10:54:02;;;;;;;18.13;15.82;;;17.40;99.90;;;;;;5051463;28;20039;-86
2023/07/23 10:56:41;;;;;;;21.33;15.48;;;17.40;99.90;;;;;;5043676;28;20028;-86
2023/07/23 10:59:09;;;;;;;19.15;15.23;;;17.40;99.90;;;;;;5035274;28;20043;-85
2023/07/23 11:01:39;;;;;;;18.75;16.73;;;17.40;99.90;;;;;;5044424;28;20414;-85
2023/07/23 11:04:09;;;;;;;18.67;16.75;;;17.40;99.90;;;;;;5041346;28;20032;-85
2023/07/23 11:06:35;;;;;;;19.85;17.73;;;17.40;99.90;;;;;;5040949;28;20025;-85
2023/07/23 11:09:08;;;;;;;19.30;17.38;;;17.40;99.90;;;;;;5057548;28;20037;-85
2023/07/23 11:11:39;;;;;;;20.25;18.15;;;17.40;99.90;;;;;;5057762;28;20029;-85
2023/07/23 11:14:22;;;;;;;19.77;17.98;;;17.50;99.90;;;;;;5025627;28;20119;-85
2023/07/23 11:16:59;;;;;;;19.42;17.63;;;17.40;99.90;;;;;;5060026;28;20098;-86
2023/07/23 11:19:26;;;;;;;20.80;18.48;;;17.40;99.90;;;;;;5064021;28;20443;-83
2023/07/23 11:21:56;;;;;;;19.83;17.67;;;17.40;99.90;;;;;;5064877;28;20028;-84
2023/07/23 11:24:25;;;;;;;20.40;18.40;;;17.40;99.90;;;;;;5064568;28;20020;-84
2023/07/23 11:26:52;;;;;;;21.38;18.08;;;17.40;99.90;;;;;;5057763;28;20029;-84
2023/07/23 11:29:18;;;;;;;18.92;17.02;;;17.40;99.90;;;;;;5036267;28;20036;-84
2023/07/23 11:31:45;;;;;;;19.30;17.40;;;17.30;99.90;;;;;;5031549;28;20036;-84
2023/07/23 11:34:15;;;;;;;20.42;17.55;;;17.40;99.90;;;;;;5054363;28;20035;-84
2023/07/23 11:36:41;;;;;;;19.17;17.23;;;17.40;99.90;;;;;;5065091;28;20069;-85
2023/07/23 11:39:07;;;;;;;19.25;17.20;;;17.40;99.90;;;;;;5047365;28;20028;-84
2023/07/23 11:41:36;;;;;;;19.58;16.80;;;17.40;99.90;;;;;;5064797;28;20036;-84
2023/07/23 11:44:06;;;;;;;18.13;16.20;;;17.40;99.90;;;;;;5054288;28;20115;-84
2023/07/23 11:46:33;;;;;;;20.13;16.63;;;17.40;99.90;;;;;;5047139;28;20020;-84
2023/07/23 11:49:00;;;;;;;17.77;16.08;;;17.50;99.90;;;;;;5055821;28;20442;-84
2023/07/23 11:51:33;;;;;;;18.42;16.55;;;17.50;99.90;;;;;;5022328;28;20024;-84
2023/07/23 11:54:02;;;;;;;17.40;15.48;;;17.50;99.90;;;;;;5055430;28;21635;-84
2023/07/23 11:56:30;;;;;;;18.13;16.33;;;17.60;99.90;;;;;;5062130;28;20060;-84
2023/07/23 11:59:02;;;;;;;18.40;16.65;;;17.60;99.90;;;;;;5058594;28;20028;-84
2023/07/23 12:01:28;;;;;;;18.77;16.88;;;17.60;99.90;;;;;;5057406;28;20112;-84
2023/07/23 12:03:54;;;;;;;18.85;16.92;;;17.60;99.90;;;;;;5063288;28;20032;-84
2023/07/23 12:06:20;;;;;;;19.85;17.75;;;17.60;99.90;;;;;;5063299;28;20036;-85
2023/07/23 12:08:49;;;;;;;18.88;17.02;;;17.60;99.90;;;;;;5055668;28;20037;-85
2023/07/23 12:11:18;;;;;;;18.92;17.02;;;17.60;99.90;;;;;;5027694;28;20044;-86
2023/07/23 12:13:49;;;;;;;19.77;17.67;;;17.60;99.90;;;;;;5037953;28;20032;-88
2023/07/23 12:16:35;;;;;;;17.80;16.08;;;17.60;99.90;;;;;;5051547;28;20115;-85
2023/07/23 12:19:07;;;;;;;19.10;17.10;;;17.70;99.90;;;;;;5034619;28;20024;-85
2023/07/23 12:21:37;;;;;;;19.75;17.67;;;17.60;99.90;;;;;;5047866;28;20024;-85
2023/07/23 12:24:13;;;;;;;17.75;15.93;;;17.70;99.90;;;;;;5053528;28;20017;-85
2023/07/23 12:26:40;;;;;;;18.77;16.08;;;17.80;99.90;;;;;;5044153;28;20035;-85
2023/07/23 12:29:06;;;;;;;17.33;15.63;;;17.80;99.90;;;;;;5054749;28;20056;-86
2023/07/23 12:31:42;;;;;;;16.55;14.93;;;17.90;99.90;;;;;;5079002;28;20032;-86
2023/07/23 12:34:12;;;;;;;17.42;14.70;;;17.90;99.90;;;;;;5047069;28;20454;-85
2023/07/23 12:36:39;;;;;;;15.40;13.82;;;18.00;99.90;;;;;;5051819;28;20033;-86
2023/07/23 12:39:07;;;;;;;15.48;13.88;;;18.10;99.90;;;;;;5043725;28;20119;-85
2023/07/23 12:41:36;;;;;;;15.90;14.23;;;18.20;99.90;;;;;;5046798;28;20431;-85
2023/07/23 12:44:03;;;;;;;15.90;13.55;;;18.20;99.90;;;;;;5062706;28;20134;-85